Terminal Aerodrome Forecast
Issued by NWS

Home | Current Version | Previous Version | Text Only | Print | Product List | Glossary On
Versions: 1 2 3 4 5 6 7 8 9 10 11 12 13 14 15 16 17 18 19 20 21 22 23 24
772
FTAK31 PANC 101127
TAFAHO
TAF
PAHO 101127Z 1012/1112 07015G25KT P6SM FEW050 BKN120
     FM101500 06008G18KT P6SM VCSH BKN050 OVC100
     FM102100 05009KT P6SM SCT050 BKN100=

USA.gov is the U.S. government's official web portal to all federal, state and local government web resources and services.